HBBAHRYR

Guest
Details From HBBA - BUJUMBURA INTL
To HRYR - KIGALI INTL
Flight Number -
Tags generated
Created
Modified
Stats Distance 95 nm / 176 km
Max Altitude 9,700 ft / 2,957 m
Waypoints 3
Social Downloads 4
Likes 0
Share VATSIM

Download

Looking for another format? Having issues loading an existing format? Contact us
Advertisement - Login to hide

Notes

Basic altitude profile: - Ascent Rate: 2500ft/min - Ascent Speed: 250kts - Cruise Altitude: 35000ft - Cruise Speed: 420kts - Descent Rate: 1500ft/min - Descent Speed: 250kts Options: - Use NATs: yes - Use PACOTS: yes - Use low airways: yes - Use high airways: yes

Route

HBBA RG HRYR

ID Type Via Altitude Latitude Longitude Leg Dist Tot Dist Heading (true) Name
O HBBA APT - 0 ft / 0 m -3.32402˚ 29.31852˚ - 0 nm - BUJUMBURA INTL
RG NDB - 9,700 ft / 2,957 m -2.91651˚ 29.51868˚ 27 nm 27 nm 26° / 26° RWEGURA NDB
O HRYR APT - 0 ft / 0 m -1.96863˚ 30.13945˚ 68 nm 95 nm 33° / 33° KIGALI INTL

Altitude Profile

Advertisement - Login to hide

HBBA

Details ICAO HBBA (BJM)
Name BUJUMBURA INTL
Region Burundi
Timezone Africa/Bujumbura (UTC+2.0)
Stats Elevation 2,582 ft / 787 m (AMSL)
Location -3.324018° 29.318521°
Runways 1
Magnetic Variation 0.887° E

METAR

Not found

TAF

TAF TAF HBBA 140300Z 1406/1512 18010KT 9999 FEW030 SCT100 BECMG1416/1418 00000KT CAVOK BECMG1502/1504 36004KT 9999 FEW020 SCT090 BECMG1508/10 18010KT9999 FEW030 SCT100

Decode

Departure Runways

ID Width Length Bearing (true) Bearing (mag) Surface Threshold Offset Overrun Length
17 148 ft / 45 m 11,841 ft / 3,609 m 171.10° 170.21° Asphalt 0 ft / 0 m 60 ft / 18 m
35 148 ft / 45 m 11,841 ft / 3,609 m 351.10° 350.21° Asphalt 0 ft / 0 m 60 ft / 18 m

HRYR

Details ICAO HRYR (KGL)
Name KIGALI INTL
Region Rwanda
Timezone Africa/Kigali (UTC+2.0)
Stats Elevation 4,859 ft / 1,481 m (AMSL)
Location -1.968628° 30.139450°
Runways 1
Magnetic Variation 1.204° E

METAR

HRYR 140930Z 20005KT 120V250 9999 SCT026 27/15 Q1020 NOSIG

Decode

TAF

TAF HRYR 140500Z 1406/1512 00000KT 9999 FEW026 FM 140800 15006KT SCT025 TEMPO 1411/1416 08012KT TS FEW023CB SCT025 FM 141900 30004KT SCT026 BECMG 1502/1505 VRB03KT 8000 FEW025 SCT100 FM 150800 14008KT 9999 SCT025

Decode

Destination Runways

ID Width Length Bearing (true) Bearing (mag) Surface Threshold Offset Overrun Length
10 148 ft / 45 m 11,485 ft / 3,501 m 99.97° 98.77° Asphalt 0 ft / 0 m 66 ft / 20 m
28 148 ft / 45 m 11,485 ft / 3,501 m 279.97° 278.77° Asphalt 705 ft / 215 m 66 ft / 20 m

Approach Navaids

Runway Type Ident Frequency Range Bearing (true) Bearing (mag) Slope Elevation
28 Localiser IKNB 109.90 MHz 18 nm / 33 km 279.95° 278.75° - 4,859 ft / 1,481 m (AMSL)
28 Glidescope IKNB 109.90 MHz 10 nm / 19 km 279.97° 278.77° 3.00° 4,859 ft / 1,481 m (AMSL)

Popular Alternatives